sensor_id;sensor_type;location;lat;lon;timestamp;P1;durP1;ratioP1;P2;durP2;ratioP2
13855;SDS011;6998;53.608;9.958;2023-03-01T01:18:16;25.33;;;15.23;;
13855;SDS011;6998;53.608;9.958;2023-03-01T01:21:38;22.80;;;15.63;;
13855;SDS011;6998;53.608;9.958;2023-03-01T01:25:03;27.73;;;16.13;;
13855;SDS011;6998;53.608;9.958;2023-03-01T01:40:29;25.67;;;14.53;;
13855;SDS011;6998;53.608;9.958;2023-03-01T01:53:29;18.83;;;12.87;;
13855;SDS011;6998;53.608;9.958;2023-03-01T01:56:21;21.07;;;13.37;;
13855;SDS011;6998;53.608;9.958;2023-03-01T01:59:34;19.23;;;12.87;;
13855;SDS011;6998;53.608;9.958;2023-03-01T02:06:12;18.60;;;12.37;;
13855;SDS011;6998;53.608;9.958;2023-03-01T02:16:30;19.30;;;12.00;;
13855;SDS011;6998;53.608;9.958;2023-03-01T02:30:06;22.93;;;13.33;;
13855;SDS011;6998;53.608;9.958;2023-03-01T02:32:45;22.10;;;12.70;;
13855;SDS011;6998;53.608;9.958;2023-03-01T02:35:18;21.93;;;13.80;;
13855;SDS011;6998;53.608;9.958;2023-03-01T02:38:10;19.93;;;12.97;;
13855;SDS011;6998;53.608;9.958;2023-03-01T02:41:07;21.87;;;12.80;;
13855;SDS011;6998;53.608;9.958;2023-03-01T02:43:39;20.87;;;12.70;;
13855;SDS011;6998;53.608;9.958;2023-03-01T02:56:47;20.17;;;13.43;;
13855;SDS011;6998;53.608;9.958;2023-03-01T02:59:22;19.67;;;12.63;;
13855;SDS011;6998;53.608;9.958;2023-03-01T03:01:55;20.80;;;12.67;;
13855;SDS011;6998;53.608;9.958;2023-03-01T03:04:49;20.57;;;11.90;;
13855;SDS011;6998;53.608;9.958;2023-03-01T03:07:25;18.87;;;12.80;;
13855;SDS011;6998;53.608;9.958;2023-03-01T03:10:19;18.53;;;11.93;;
13855;SDS011;6998;53.608;9.958;2023-03-01T03:12:58;18.03;;;11.53;;
13855;SDS011;6998;53.608;9.958;2023-03-01T03:15:28;18.43;;;11.77;;
13855;SDS011;6998;53.608;9.958;2023-03-01T03:18:20;16.40;;;10.50;;
13855;SDS011;6998;53.608;9.958;2023-03-01T03:21:02;16.57;;;10.90;;
13855;SDS011;6998;53.608;9.958;2023-03-01T03:24:05;14.33;;;9.30;;
13855;SDS011;6998;53.608;9.958;2023-03-01T03:32:35;15.23;;;9.43;;
13855;SDS011;6998;53.608;9.958;2023-03-01T03:35:30;15.03;;;9.80;;
13855;SDS011;6998;53.608;9.958;2023-03-01T03:37:59;13.17;;;8.90;;
13855;SDS011;6998;53.608;9.958;2023-03-01T03:40:42;13.17;;;8.87;;
13855;SDS011;6998;53.608;9.958;2023-03-01T03:43:23;13.60;;;9.47;;
13855;SDS011;6998;53.608;9.958;2023-03-01T03:49:02;15.53;;;9.87;;
13855;SDS011;6998;53.608;9.958;2023-03-01T03:52:12;13.93;;;10.10;;
13855;SDS011;6998;53.608;9.958;2023-03-01T03:54:42;14.63;;;9.60;;
13855;SDS011;6998;53.608;9.958;2023-03-01T03:57:42;14.53;;;9.00;;
13855;SDS011;6998;53.608;9.958;2023-03-01T04:00:51;14.93;;;9.37;;
13855;SDS011;6998;53.608;9.958;2023-03-01T04:07:00;17.73;;;10.43;;
13855;SDS011;6998;53.608;9.958;2023-03-01T04:13:18;11.80;;;8.13;;
13855;SDS011;6998;53.608;9.958;2023-03-01T04:18:49;14.10;;;8.20;;
13855;SDS011;6998;53.608;9.958;2023-03-01T04:21:28;12.80;;;8.20;;
13855;SDS011;6998;53.608;9.958;2023-03-01T04:24:09;14.10;;;8.77;;
13855;SDS011;6998;53.608;9.958;2023-03-01T04:27:31;13.10;;;8.70;;
13855;SDS011;6998;53.608;9.958;2023-03-01T04:30:18;13.30;;;8.20;;
13855;SDS011;6998;53.608;9.958;2023-03-01T04:33:01;12.87;;;8.10;;
13855;SDS011;6998;53.608;9.958;2023-03-01T04:36:17;12.30;;;8.17;;
13855;SDS011;6998;53.608;9.958;2023-03-01T04:38:49;13.63;;;8.73;;
13855;SDS011;6998;53.608;9.958;2023-03-01T04:41:22;13.17;;;8.10;;
13855;SDS011;6998;53.608;9.958;2023-03-01T04:44:06;10.00;;;6.93;;
13855;SDS011;6998;53.608;9.958;2023-03-01T04:53:33;11.97;;;8.23;;
13855;SDS011;6998;53.608;9.958;2023-03-01T06:32:08;9.37;;;6.57;;
13855;SDS011;6998;53.608;9.958;2023-03-01T07:10:06;12.30;;;7.53;;
13855;SDS011;6998;53.608;9.958;2023-03-01T07:12:42;12.37;;;7.63;;
13855;SDS011;6998;53.608;9.958;2023-03-01T07:15:31;9.87;;;7.23;;
13855;SDS011;6998;53.608;9.958;2023-03-01T07:18:20;12.73;;;7.13;;
13855;SDS011;6998;53.608;9.958;2023-03-01T12:11:36;5.60;;;4.43;;
13855;SDS011;6998;53.608;9.958;2023-03-01T12:14:55;7.27;;;5.77;;
